sensor_id;sensor_type;location;lat;lon;timestamp;pressure;altitude;pressure_sealevel;temperature;humidity
64687;BME280;51113;53.646;-113.674;2023-12-07T00:01:44;92568.59;;;-0.23;99.13
64687;BME280;51113;53.646;-113.674;2023-12-07T00:04:13;92543.31;;;-0.48;100.00
64687;BME280;51113;53.646;-113.674;2023-12-07T00:06:42;92554.75;;;-0.39;100.00
64687;BME280;51113;53.646;-113.674;2023-12-07T00:09:11;92547.88;;;-0.38;100.00
64687;BME280;51113;53.646;-113.674;2023-12-07T00:11:40;92557.63;;;-0.47;99.96
64687;BME280;51113;53.646;-113.674;2023-12-07T00:14:09;92562.81;;;-0.53;100.00
64687;BME280;51113;53.646;-113.674;2023-12-07T00:16:37;92556.63;;;-0.46;100.00
64687;BME280;51113;53.646;-113.674;2023-12-07T00:19:06;92528.88;;;-0.66;100.00
64687;BME280;51113;53.646;-113.674;2023-12-07T00:21:35;92561.94;;;-0.47;100.00
64687;BME280;51113;53.646;-113.674;2023-12-07T00:24:04;92565.72;;;-0.38;100.00
64687;BME280;51113;53.646;-113.674;2023-12-07T00:26:36;92545.06;;;-0.72;100.00
64687;BME280;51113;53.646;-113.674;2023-12-07T00:29:05;92545.06;;;-0.72;100.00
64687;BME280;51113;53.646;-113.674;2023-12-07T00:31:33;92544.28;;;-0.60;100.00
64687;BME280;51113;53.646;-113.674;2023-12-07T00:34:02;92552.06;;;-0.44;100.00
64687;BME280;51113;53.646;-113.674;2023-12-07T00:36:31;92543.22;;;-0.41;100.00
64687;BME280;51113;53.646;-113.674;2023-12-07T00:39:00;92534.44;;;-0.45;100.00
64687;BME280;51113;53.646;-113.674;2023-12-07T00:41:28;92524.81;;;-0.31;100.00
64687;BME280;51113;53.646;-113.674;2023-12-07T00:43:57;92500.06;;;-0.31;100.00
64687;BME280;51113;53.646;-113.674;2023-12-07T00:46:26;92530.66;;;-0.08;100.00
64687;BME280;51113;53.646;-113.674;2023-12-07T00:48:55;92520.66;;;0.14;100.00
64687;BME280;51113;53.646;-113.674;2023-12-07T00:51:24;92524.06;;;0.31;100.00
64687;BME280;51113;53.646;-113.674;2023-12-07T00:53:53;92496.78;;;0.20;100.00
64687;BME280;51113;53.646;-113.674;2023-12-07T00:56:22;92511.75;;;0.28;100.00
64687;BME280;51113;53.646;-113.674;2023-12-07T00:58:50;92505.66;;;0.29;100.00
64687;BME280;51113;53.646;-113.674;2023-12-07T01:01:19;92485.22;;;0.29;100.00
64687;BME280;51113;53.646;-113.674;2023-12-07T01:03:48;92513.47;;;0.51;100.00
64687;BME280;51113;53.646;-113.674;2023-12-07T01:06:17;92510.88;;;0.63;100.00
64687;BME280;51113;53.646;-113.674;2023-12-07T01:08:45;92505.78;;;1.08;100.00
64687;BME280;51113;53.646;-113.674;2023-12-07T01:11:14;92498.50;;;1.34;100.00
64687;BME280;51113;53.646;-113.674;2023-12-07T01:13:43;92491.16;;;1.54;99.30
64687;BME280;51113;53.646;-113.674;2023-12-07T01:16:11;92500.91;;;1.40;97.71
64687;BME280;51113;53.646;-113.674;2023-12-07T01:18:40;92493.25;;;1.57;97.76
64687;BME280;51113;53.646;-113.674;2023-12-07T01:21:09;92488.69;;;1.25;96.57
64687;BME280;51113;53.646;-113.674;2023-12-07T01:23:38;92492.47;;;1.40;97.72
64687;BME280;51113;53.646;-113.674;2023-12-07T01:26:10;92494.09;;;1.63;96.96
64687;BME280;51113;53.646;-113.674;2023-12-07T01:28:39;92512.97;;;1.11;95.50
64687;BME280;51113;53.646;-113.674;2023-12-07T01:31:08;92520.03;;;0.76;97.10
64687;BME280;51113;53.646;-113.674;2023-12-07T01:33:38;92498.66;;;0.65;98.98
64687;BME280;51113;53.646;-113.674;2023-12-07T01:36:11;92492.38;;;1.01;100.00
64687;BME280;51113;53.646;-113.674;2023-12-07T01:38:40;92501.75;;;0.67;98.03
64687;BME280;51113;53.646;-113.674;2023-12-07T01:41:10;92498.81;;;0.47;98.49
64687;BME280;51113;53.646;-113.674;2023-12-07T01:43:47;92495.25;;;0.19;99.41
64687;BME280;51113;53.646;-113.674;2023-12-07T01:46:19;92497.56;;;0.21;99.97
64687;BME280;51113;53.646;-113.674;2023-12-07T01:48:48;92476.00;;;-0.12;99.70
64687;BME280;51113;53.646;-113.674;2023-12-07T01:51:18;92490.59;;;0.16;100.00
64687;BME280;51113;53.646;-113.674;2023-12-07T01:53:49;92472.34;;;-0.16;100.00
64687;BME280;51113;53.646;-113.674;2023-12-07T01:56:18;92479.44;;;0.34;100.00
64687;BME280;51113;53.646;-113.674;2023-12-07T01:58:48;92449.84;;;0.21;100.00
64687;BME280;51113;53.646;-113.674;2023-12-07T02:01:17;92473.59;;;0.50;100.00
64687;BME280;51113;53.646;-113.674;2023-12-07T02:03:46;92478.91;;;0.60;99.67
64687;BME280;51113;53.646;-113.674;2023-12-07T02:06:15;92451.53;;;0.44;99.80
64687;BME280;51113;53.646;-113.674;2023-12-07T02:08:44;92470.97;;;0.74;99.13
64687;BME280;51113;53.646;-113.674;2023-12-07T02:11:14;92460.28;;;0.77;98.67
64687;BME280;51113;53.646;-113.674;2023-12-07T02:13:43;92456.63;;;0.73;98.72
64687;BME280;51113;53.646;-113.674;2023-12-07T02:16:51;92459.72;;;0.75;98.44
64687;BME280;51113;53.646;-113.674;2023-12-07T02:20:00;92454.25;;;0.83;98.14
64687;BME280;51113;53.646;-113.674;2023-12-07T02:22:37;92455.81;;;0.84;97.85
64687;BME280;51113;53.646;-113.674;2023-12-07T02:25:10;92451.44;;;0.68;98.19
64687;BME280;51113;53.646;-113.674;2023-12-07T02:27:41;92452.53;;;0.72;98.49
64687;BME280;51113;53.646;-113.674;2023-12-07T02:30:11;92423.00;;;0.47;98.73
64687;BME280;51113;53.646;-113.674;2023-12-07T02:32:42;92456.41;;;0.74;98.40
64687;BME280;51113;53.646;-113.674;2023-12-07T02:35:13;92426.91;;;0.67;97.62
64687;BME280;51113;53.646;-113.674;2023-12-07T02:37:43;92460.91;;;0.84;97.50
64687;BME280;51113;53.646;-113.674;2023-12-07T02:40:16;92460.22;;;0.88;97.01
64687;BME280;51113;53.646;-113.674;2023-12-07T02:42:45;92476.25;;;0.84;97.13
64687;BME280;51113;53.646;-113.674;2023-12-07T02:45:15;92473.50;;;0.74;97.45
64687;BME280;51113;53.646;-113.674;2023-12-07T02:47:44;92466.47;;;0.81;97.59
64687;BME280;51113;53.646;-113.674;2023-12-07T02:50:13;92466.03;;;0.84;97.51
64687;BME280;51113;53.646;-113.674;2023-12-07T02:52:42;92444.78;;;0.67;97.11
64687;BME280;51113;53.646;-113.674;2023-12-07T02:55:11;92428.38;;;0.62;96.72
64687;BME280;51113;53.646;-113.674;2023-12-07T02:57:41;92424.34;;;0.67;97.04
64687;BME280;51113;53.646;-113.674;2023-12-07T03:00:10;92424.38;;;0.83;96.27
64687;BME280;51113;53.646;-113.674;2023-12-07T03:02:41;92444.50;;;0.96;96.02
64687;BME280;51113;53.646;-113.674;2023-12-07T03:05:10;92425.13;;;0.67;96.55
64687;BME280;51113;53.646;-113.674;2023-12-07T03:07:39;92450.56;;;0.62;97.93
64687;BME280;51113;53.646;-113.674;2023-12-07T03:10:08;92463.56;;;0.60;97.83
64687;BME280;51113;53.646;-113.674;2023-12-07T03:12:37;92458.06;;;0.52;98.27
64687;BME280;51113;53.646;-113.674;2023-12-07T03:15:06;92436.63;;;0.24;98.14
64687;BME280;51113;53.646;-113.674;2023-12-07T03:17:36;92453.63;;;0.19;98.10
64687;BME280;51113;53.646;-113.674;2023-12-07T03:20:05;92455.88;;;0.04;98.72
64687;BME280;51113;53.646;-113.674;2023-12-07T03:22:34;92452.38;;;-0.19;98.95
64687;BME280;51113;53.646;-113.674;2023-12-07T03:25:03;92455.72;;;-0.30;99.49
64687;BME280;51113;53.646;-113.674;2023-12-07T03:27:32;92454.19;;;-0.43;100.00
64687;BME280;51113;53.646;-113.674;2023-12-07T03:30:01;92463.94;;;-0.51;100.00
64687;BME280;51113;53.646;-113.674;2023-12-07T03:32:29;92449.88;;;-0.54;100.00
64687;BME280;51113;53.646;-113.674;2023-12-07T03:34:58;92438.00;;;-0.72;100.00
64687;BME280;51113;53.646;-113.674;2023-12-07T03:37:27;92446.31;;;-0.64;100.00
64687;BME280;51113;53.646;-113.674;2023-12-07T03:39:56;92456.84;;;-0.73;100.00
64687;BME280;51113;53.646;-113.674;2023-12-07T03:42:25;92449.97;;;-0.60;100.00
64687;BME280;51113;53.646;-113.674;2023-12-07T03:45:14;92450.97;;;-0.50;100.00
64687;BME280;51113;53.646;-113.674;2023-12-07T03:47:43;92455.63;;;-0.47;100.00
64687;BME280;51113;53.646;-113.674;2023-12-07T03:50:12;92422.84;;;-0.78;100.00
64687;BME280;51113;53.646;-113.674;2023-12-07T03:52:41;92432.03;;;-0.89;100.00
64687;BME280;51113;53.646;-113.674;2023-12-07T03:55:11;92457.84;;;-0.85;100.00
64687;BME280;51113;53.646;-113.674;2023-12-07T03:57:40;92451.06;;;-0.91;100.00
64687;BME280;51113;53.646;-113.674;2023-12-07T04:00:12;92441.44;;;-0.89;100.00
64687;BME280;51113;53.646;-113.674;2023-12-07T04:02:41;92418.63;;;-1.08;100.00
64687;BME280;51113;53.646;-113.674;2023-12-07T04:05:10;92450.53;;;-0.82;100.00
64687;BME280;51113;53.646;-113.674;2023-12-07T04:07:40;92432.59;;;-0.87;100.00
64687;BME280;51113;53.646;-113.674;2023-12-07T04:10:10;92405.22;;;-1.03;100.00
64687;BME280;51113;53.646;-113.674;2023-12-07T04:12:39;92434.25;;;-0.81;100.00
64687;BME280;51113;53.646;-113.674;2023-12-07T04:15:08;92443.00;;;-0.65;100.00
64687;BME280;51113;53.646;-113.674;2023-12-07T04:17:38;92400.00;;;-0.85;100.00
64687;BME280;51113;53.646;-113.674;2023-12-07T04:20:07;92438.91;;;-0.54;100.00
64687;BME280;51113;53.646;-113.674;2023-12-07T04:22:36;92450.44;;;-0.52;100.00
64687;BME280;51113;53.646;-113.674;2023-12-07T04:25:05;92444.75;;;-0.42;100.00
64687;BME280;51113;53.646;-113.674;2023-12-07T04:27:35;92403.22;;;-0.54;100.00
64687;BME280;51113;53.646;-113.674;2023-12-07T04:30:05;92438.53;;;-0.35;100.00
64687;BME280;51113;53.646;-113.674;2023-12-07T04:32:34;92436.34;;;-0.43;100.00
64687;BME280;51113;53.646;-113.674;2023-12-07T04:35:03;92434.78;;;-0.44;100.00
64687;BME280;51113;53.646;-113.674;2023-12-07T04:37:33;92395.25;;;-0.70;100.00
64687;BME280;51113;53.646;-113.674;2023-12-07T04:40:01;92399.91;;;-0.67;100.00
64687;BME280;51113;53.646;-113.674;2023-12-07T04:42:31;92397.78;;;-0.58;100.00
64687;BME280;51113;53.646;-113.674;2023-12-07T04:45:00;92409.41;;;-0.50;100.00
64687;BME280;51113;53.646;-113.674;2023-12-07T04:47:28;92366.44;;;-0.82;100.00
64687;BME280;51113;53.646;-113.674;2023-12-07T04:49:58;92367.22;;;-0.81;100.00
64687;BME280;51113;53.646;-113.674;2023-12-07T04:52:27;92389.13;;;-0.57;100.00
64687;BME280;51113;53.646;-113.674;2023-12-07T04:54:56;92386.81;;;-0.58;100.00
64687;BME280;51113;53.646;-113.674;2023-12-07T04:57:25;92393.59;;;-0.76;100.00
64687;BME280;51113;53.646;-113.674;2023-12-07T04:59:53;92366.78;;;-1.02;100.00
64687;BME280;51113;53.646;-113.674;2023-12-07T05:02:22;92404.00;;;-0.89;100.00
64687;BME280;51113;53.646;-113.674;2023-12-07T05:04:52;92371.56;;;-1.05;100.00
64687;BME280;51113;53.646;-113.674;2023-12-07T05:07:20;92379.19;;;-1.05;100.00
64687;BME280;51113;53.646;-113.674;2023-12-07T05:09:50;92398.69;;;-0.76;100.00
64687;BME280;51113;53.646;-113.674;2023-12-07T05:12:21;92404.66;;;-0.70;100.00
64687;BME280;51113;53.646;-113.674;2023-12-07T05:14:51;92381.28;;;-0.79;100.00
64687;BME280;51113;53.646;-113.674;2023-12-07T05:17:20;92400.44;;;-0.64;100.00
64687;BME280;51113;53.646;-113.674;2023-12-07T05:19:48;92385.72;;;-0.86;100.00
64687;BME280;51113;53.646;-113.674;2023-12-07T05:22:17;92361.13;;;-1.04;100.00
64687;BME280;51113;53.646;-113.674;2023-12-07T05:24:46;92388.50;;;-0.87;100.00
64687;BME280;51113;53.646;-113.674;2023-12-07T05:27:15;92386.63;;;-0.92;100.00
64687;BME280;51113;53.646;-113.674;2023-12-07T05:29:44;92352.94;;;-1.17;100.00
64687;BME280;51113;53.646;-113.674;2023-12-07T05:32:13;92389.38;;;-0.93;100.00
64687;BME280;51113;53.646;-113.674;2023-12-07T05:34:42;92388.28;;;-0.86;100.00
64687;BME280;51113;53.646;-113.674;2023-12-07T05:37:11;92396.25;;;-0.82;100.00
64687;BME280;51113;53.646;-113.674;2023-12-07T05:39:40;92348.84;;;-1.07;100.00
64687;BME280;51113;53.646;-113.674;2023-12-07T05:42:09;92391.81;;;-0.87;100.00
64687;BME280;51113;53.646;-113.674;2023-12-07T05:44:38;92367.66;;;-0.96;100.00
64687;BME280;51113;53.646;-113.674;2023-12-07T05:47:07;92406.09;;;-0.62;100.00
64687;BME280;51113;53.646;-113.674;2023-12-07T05:49:36;92397.13;;;-0.65;100.00
64687;BME280;51113;53.646;-113.674;2023-12-07T05:52:05;92407.84;;;-0.51;100.00
64687;BME280;51113;53.646;-113.674;2023-12-07T05:54:34;92390.47;;;-0.54;100.00
64687;BME280;51113;53.646;-113.674;2023-12-07T05:57:04;92399.41;;;-0.40;100.00
64687;BME280;51113;53.646;-113.674;2023-12-07T05:59:37;92393.88;;;-0.37;100.00
64687;BME280;51113;53.646;-113.674;2023-12-07T06:02:07;92407.50;;;-0.31;100.00
64687;BME280;51113;53.646;-113.674;2023-12-07T06:04:36;92394.06;;;-0.27;100.00
64687;BME280;51113;53.646;-113.674;2023-12-07T06:07:05;92393.41;;;-0.34;100.00
64687;BME280;51113;53.646;-113.674;2023-12-07T06:09:33;92392.75;;;-0.29;100.00
64687;BME280;51113;53.646;-113.674;2023-12-07T06:12:03;92401.84;;;-0.34;100.00
64687;BME280;51113;53.646;-113.674;2023-12-07T06:14:32;92382.13;;;-0.38;100.00
64687;BME280;51113;53.646;-113.674;2023-12-07T06:17:01;92394.53;;;-0.30;100.00
64687;BME280;51113;53.646;-113.674;2023-12-07T06:19:30;92396.84;;;-0.28;100.00
64687;BME280;51113;53.646;-113.674;2023-12-07T06:21:59;92397.28;;;-0.31;100.00
64687;BME280;51113;53.646;-113.674;2023-12-07T06:24:28;92365.84;;;-0.49;100.00
64687;BME280;51113;53.646;-113.674;2023-12-07T06:26:56;92394.06;;;-0.27;100.00
64687;BME280;51113;53.646;-113.674;2023-12-07T06:29:26;92387.53;;;-0.35;100.00
64687;BME280;51113;53.646;-113.674;2023-12-07T06:31:56;92401.16;;;-0.17;100.00
64687;BME280;51113;53.646;-113.674;2023-12-07T06:34:24;92420.22;;;-0.20;100.00
64687;BME280;51113;53.646;-113.674;2023-12-07T06:36:53;92392.88;;;-0.36;100.00
64687;BME280;51113;53.646;-113.674;2023-12-07T06:39:22;92419.56;;;-0.27;100.00
64687;BME280;51113;53.646;-113.674;2023-12-07T06:41:50;92422.56;;;-0.30;100.00
64687;BME280;51113;53.646;-113.674;2023-12-07T06:44:19;92431.78;;;-0.29;100.00
64687;BME280;51113;53.646;-113.674;2023-12-07T06:46:48;92411.41;;;-0.52;100.00
64687;BME280;51113;53.646;-113.674;2023-12-07T06:49:18;92424.47;;;-0.37;100.00
64687;BME280;51113;53.646;-113.674;2023-12-07T06:51:47;92418.59;;;-0.38;100.00
64687;BME280;51113;53.646;-113.674;2023-12-07T06:54:16;92415.03;;;-0.37;100.00
64687;BME280;51113;53.646;-113.674;2023-12-07T06:56:45;92418.72;;;-0.44;100.00
64687;BME280;51113;53.646;-113.674;2023-12-07T06:59:14;92422.50;;;-0.47;100.00
64687;BME280;51113;53.646;-113.674;2023-12-07T07:01:42;92417.72;;;-0.55;100.00
64687;BME280;51113;53.646;-113.674;2023-12-07T07:04:11;92417.06;;;-0.50;100.00
64687;BME280;51113;53.646;-113.674;2023-12-07T07:06:41;92425.25;;;-0.37;100.00
64687;BME280;51113;53.646;-113.674;2023-12-07T07:09:10;92403.09;;;-0.59;100.00
64687;BME280;51113;53.646;-113.674;2023-12-07T07:11:41;92423.13;;;-0.28;100.00
64687;BME280;51113;53.646;-113.674;2023-12-07T07:14:10;92420.22;;;-0.20;100.00
64687;BME280;51113;53.646;-113.674;2023-12-07T07:16:39;92397.72;;;-0.23;100.00
64687;BME280;51113;53.646;-113.674;2023-12-07T07:19:09;92420.69;;;-0.23;100.00
64687;BME280;51113;53.646;-113.674;2023-12-07T07:21:38;92425.78;;;-0.23;100.00
64687;BME280;51113;53.646;-113.674;2023-12-07T07:24:10;92411.69;;;-0.25;100.00
64687;BME280;51113;53.646;-113.674;2023-12-07T07:26:39;92423.78;;;-0.21;100.00
64687;BME280;51113;53.646;-113.674;2023-12-07T07:29:07;92431.19;;;-0.19;100.00
64687;BME280;51113;53.646;-113.674;2023-12-07T07:31:36;92416.81;;;-0.25;100.00
64687;BME280;51113;53.646;-113.674;2023-12-07T07:34:06;92426.22;;;-0.26;100.00
64687;BME280;51113;53.646;-113.674;2023-12-07T07:36:36;92423.56;;;-0.31;100.00
64687;BME280;51113;53.646;-113.674;2023-12-07T07:39:05;92428.69;;;-0.43;100.00
64687;BME280;51113;53.646;-113.674;2023-12-07T07:41:38;92424.72;;;-0.50;100.00
64687;BME280;51113;53.646;-113.674;2023-12-07T07:44:10;92403.44;;;-0.68;100.00
64687;BME280;51113;53.646;-113.674;2023-12-07T07:46:41;92400.91;;;-0.68;100.00
64687;BME280;51113;53.646;-113.674;2023-12-07T07:49:09;92431.34;;;-0.49;100.00
64687;BME280;51113;53.646;-113.674;2023-12-07T07:51:38;92427.16;;;-0.55;100.00
64687;BME280;51113;53.646;-113.674;2023-12-07T07:54:07;92429.03;;;-0.51;100.00
64687;BME280;51113;53.646;-113.674;2023-12-07T07:56:36;92403.88;;;-0.71;100.00
64687;BME280;51113;53.646;-113.674;2023-12-07T07:59:05;92412.53;;;-0.72;100.00
64687;BME280;51113;53.646;-113.674;2023-12-07T08:01:34;92430.16;;;-0.58;100.00
64687;BME280;51113;53.646;-113.674;2023-12-07T08:04:03;92413.63;;;-0.68;100.00
64687;BME280;51113;53.646;-113.674;2023-12-07T08:06:33;92449.31;;;-0.44;100.00
64687;BME280;51113;53.646;-113.674;2023-12-07T08:09:03;92418.72;;;-0.68;100.00
64687;BME280;51113;53.646;-113.674;2023-12-07T08:11:32;92441.44;;;-0.54;100.00
64687;BME280;51113;53.646;-113.674;2023-12-07T08:14:01;92430.16;;;-0.70;100.00
64687;BME280;51113;53.646;-113.674;2023-12-07T08:16:30;92434.47;;;-0.71;100.00
64687;BME280;51113;53.646;-113.674;2023-12-07T08:18:59;92454.75;;;-0.64;100.00
64687;BME280;51113;53.646;-113.674;2023-12-07T08:21:28;92430.16;;;-0.82;100.00
64687;BME280;51113;53.646;-113.674;2023-12-07T08:23:57;92457.97;;;-0.57;100.00
64687;BME280;51113;53.646;-113.674;2023-12-07T08:26:26;92434.34;;;-0.76;100.00
64687;BME280;51113;53.646;-113.674;2023-12-07T08:28:56;92434.91;;;-0.74;100.00
64687;BME280;51113;53.646;-113.674;2023-12-07T08:31:24;92445.88;;;-0.73;100.00
64687;BME280;51113;53.646;-113.674;2023-12-07T08:33:56;92471.94;;;-0.59;100.00
64687;BME280;51113;53.646;-113.674;2023-12-07T08:36:26;92460.41;;;-0.62;100.00
64687;BME280;51113;53.646;-113.674;2023-12-07T08:38:55;92445.56;;;-0.77;100.00
64687;BME280;51113;53.646;-113.674;2023-12-07T08:41:23;92465.06;;;-0.71;100.00
64687;BME280;51113;53.646;-113.674;2023-12-07T08:43:52;92473.16;;;-0.62;100.00
64687;BME280;51113;53.646;-113.674;2023-12-07T08:46:21;92474.38;;;-0.64;100.00
64687;BME280;51113;53.646;-113.674;2023-12-07T08:48:50;92477.13;;;-0.66;100.00
64687;BME280;51113;53.646;-113.674;2023-12-07T08:51:18;92466.16;;;-0.67;100.00
64687;BME280;51113;53.646;-113.674;2023-12-07T08:53:46;92472.81;;;-0.66;100.00
64687;BME280;51113;53.646;-113.674;2023-12-07T08:56:19;92464.16;;;-0.64;100.00
64687;BME280;51113;53.646;-113.674;2023-12-07T08:58:48;92466.94;;;-0.66;100.00
64687;BME280;51113;53.646;-113.674;2023-12-07T09:01:17;92463.28;;;-0.70;100.00
64687;BME280;51113;53.646;-113.674;2023-12-07T09:03:58;92446.22;;;-0.81;100.00
64687;BME280;51113;53.646;-113.674;2023-12-07T09:06:27;92464.63;;;-0.68;100.00
64687;BME280;51113;53.646;-113.674;2023-12-07T09:08:56;92432.91;;;-0.83;100.00
64687;BME280;51113;53.646;-113.674;2023-12-07T09:11:24;92449.53;;;-0.81;100.00
64687;BME280;51113;53.646;-113.674;2023-12-07T09:13:53;92448.75;;;-0.81;100.00
64687;BME280;51113;53.646;-113.674;2023-12-07T09:16:22;92468.81;;;-0.61;100.00
64687;BME280;51113;53.646;-113.674;2023-12-07T09:18:52;92463.06;;;-0.69;100.00
64687;BME280;51113;53.646;-113.674;2023-12-07T09:21:21;92449.09;;;-0.89;100.00
64687;BME280;51113;53.646;-113.674;2023-12-07T09:23:49;92479.34;;;-0.70;100.00
64687;BME280;51113;53.646;-113.674;2023-12-07T09:26:18;92434.69;;;-0.95;100.00
64687;BME280;51113;53.646;-113.674;2023-12-07T09:28:47;92489.66;;;-0.64;100.00
64687;BME280;51113;53.646;-113.674;2023-12-07T09:31:15;92469.91;;;-0.81;100.00
64687;BME280;51113;53.646;-113.674;2023-12-07T09:33:45;92449.88;;;-0.89;100.00
64687;BME280;51113;53.646;-113.674;2023-12-07T09:36:17;92474.25;;;-0.70;100.00
64687;BME280;51113;53.646;-113.674;2023-12-07T09:38:47;92461.50;;;-0.81;100.00
64687;BME280;51113;53.646;-113.674;2023-12-07T09:41:16;92469.94;;;-0.69;100.00
64687;BME280;51113;53.646;-113.674;2023-12-07T09:43:45;92453.53;;;-0.85;100.00
64687;BME280;51113;53.646;-113.674;2023-12-07T09:46:14;92473.81;;;-0.67;100.00
64687;BME280;51113;53.646;-113.674;2023-12-07T09:48:43;92462.28;;;-0.81;100.00
64687;BME280;51113;53.646;-113.674;2023-12-07T09:51:15;92479.47;;;-0.64;100.00
64687;BME280;51113;53.646;-113.674;2023-12-07T09:53:45;92476.13;;;-0.65;100.00
64687;BME280;51113;53.646;-113.674;2023-12-07T09:56:16;92478.69;;;-0.65;100.00
64687;BME280;51113;53.646;-113.674;2023-12-07T09:58:45;92496.88;;;-0.61;100.00
64687;BME280;51113;53.646;-113.674;2023-12-07T10:01:14;92497.84;;;-0.62;100.00
64687;BME280;51113;53.646;-113.674;2023-12-07T10:03:43;92506.94;;;-0.67;100.00
64687;BME280;51113;53.646;-113.674;2023-12-07T10:06:15;92498.53;;;-0.67;100.00
64687;BME280;51113;53.646;-113.674;2023-12-07T10:08:44;92509.94;;;-0.70;100.00
64687;BME280;51113;53.646;-113.674;2023-12-07T10:11:15;92517.47;;;-0.75;100.00
64687;BME280;51113;53.646;-113.674;2023-12-07T10:13:44;92500.81;;;-0.89;100.00
64687;BME280;51113;53.646;-113.674;2023-12-07T10:16:15;92529.09;;;-0.79;100.00
64687;BME280;51113;53.646;-113.674;2023-12-07T10:18:45;92525.41;;;-0.83;100.00
64687;BME280;51113;53.646;-113.674;2023-12-07T10:21:14;92537.16;;;-0.82;100.00
64687;BME280;51113;53.646;-113.674;2023-12-07T10:23:43;92532.84;;;-0.81;100.00
64687;BME280;51113;53.646;-113.674;2023-12-07T10:26:16;92523.88;;;-0.84;100.00
64687;BME280;51113;53.646;-113.674;2023-12-07T10:28:51;92532.28;;;-0.83;100.00
64687;BME280;51113;53.646;-113.674;2023-12-07T10:31:23;92510.09;;;-0.94;100.00
64687;BME280;51113;53.646;-113.674;2023-12-07T10:33:52;92510.88;;;-0.94;100.00
64687;BME280;51113;53.646;-113.674;2023-12-07T10:36:22;92508.34;;;-0.94;100.00
64687;BME280;51113;53.646;-113.674;2023-12-07T10:38:52;92518.09;;;-0.91;100.00
64687;BME280;51113;53.646;-113.674;2023-12-07T10:41:23;92489.94;;;-1.08;100.00
64687;BME280;51113;53.646;-113.674;2023-12-07T10:43:54;92523.75;;;-0.89;100.00
64687;BME280;51113;53.646;-113.674;2023-12-07T10:46:25;92526.16;;;-0.94;100.00
64687;BME280;51113;53.646;-113.674;2023-12-07T10:49:00;92497.66;;;-1.14;100.00
64687;BME280;51113;53.646;-113.674;2023-12-07T10:51:41;92531.78;;;-1.04;100.00
64687;BME280;51113;53.646;-113.674;2023-12-07T10:54:15;92523.81;;;-1.07;100.00
64687;BME280;51113;53.646;-113.674;2023-12-07T10:56:46;92534.81;;;-0.95;100.00
64687;BME280;51113;53.646;-113.674;2023-12-07T10:59:16;92512.72;;;-1.13;100.00
64687;BME280;51113;53.646;-113.674;2023-12-07T11:01:57;92531.78;;;-1.04;100.00
64687;BME280;51113;53.646;-113.674;2023-12-07T11:04:27;92536.88;;;-1.04;100.00
64687;BME280;51113;53.646;-113.674;2023-12-07T11:07:01;92517.91;;;-1.19;100.00
64687;BME280;51113;53.646;-113.674;2023-12-07T11:09:35;92515.03;;;-1.23;100.00
64687;BME280;51113;53.646;-113.674;2023-12-07T11:12:17;92512.13;;;-1.26;100.00
64687;BME280;51113;53.646;-113.674;2023-12-07T11:14:47;92543.19;;;-1.06;100.00
64687;BME280;51113;53.646;-113.674;2023-12-07T11:17:16;92517.44;;;-1.28;100.00
64687;BME280;51113;53.646;-113.674;2023-12-07T11:19:46;92548.06;;;-1.05;100.00
64687;BME280;51113;53.646;-113.674;2023-12-07T11:22:15;92543.41;;;-1.08;100.00
64687;BME280;51113;53.646;-113.674;2023-12-07T11:24:54;92548.28;;;-1.06;100.00
64687;BME280;51113;53.646;-113.674;2023-12-07T11:27:29;92542.28;;;-1.12;100.00
64687;BME280;51113;53.646;-113.674;2023-12-07T11:30:00;92546.75;;;-1.07;100.00
64687;BME280;51113;53.646;-113.674;2023-12-07T11:32:29;92547.28;;;-1.05;100.00
64687;BME280;51113;53.646;-113.674;2023-12-07T11:35:12;92542.84;;;-1.10;100.00
64687;BME280;51113;53.646;-113.674;2023-12-07T11:38:01;92525.22;;;-1.23;100.00
64687;BME280;51113;53.646;-113.674;2023-12-07T11:40:34;92546.75;;;-1.07;100.00
64687;BME280;51113;53.646;-113.674;2023-12-07T11:43:05;92545.75;;;-1.06;100.00
64687;BME280;51113;53.646;-113.674;2023-12-07T11:45:42;92548.50;;;-1.08;100.00
64687;BME280;51113;53.646;-113.674;2023-12-07T11:48:16;92511.13;;;-1.25;100.00
64687;BME280;51113;53.646;-113.674;2023-12-07T11:50:57;92545.97;;;-1.08;100.00
64687;BME280;51113;53.646;-113.674;2023-12-07T11:55:59;92541.44;;;-1.06;100.00
64687;BME280;51113;53.646;-113.674;2023-12-07T11:58:30;92531.78;;;-1.04;100.00
64687;BME280;51113;53.646;-113.674;2023-12-07T12:01:03;92537.31;;;-1.07;100.00
64687;BME280;51113;53.646;-113.674;2023-12-07T12:03:33;92529.22;;;-1.15;100.00
64687;BME280;51113;53.646;-113.674;2023-12-07T12:06:04;92532.66;;;-1.10;100.00
64687;BME280;51113;53.646;-113.674;2023-12-07T12:08:34;92515.88;;;-1.29;100.00
64687;BME280;51113;53.646;-113.674;2023-12-07T12:11:02;92538.53;;;-1.09;100.00
64687;BME280;51113;53.646;-113.674;2023-12-07T12:13:36;92537.06;;;-1.17;100.00
64687;BME280;51113;53.646;-113.674;2023-12-07T12:16:06;92550.81;;;-1.18;100.00
64687;BME280;51113;53.646;-113.674;2023-12-07T12:18:36;92551.19;;;-1.33;100.00
64687;BME280;51113;53.646;-113.674;2023-12-07T12:21:07;92548.78;;;-1.27;100.00
64687;BME280;51113;53.646;-113.674;2023-12-07T12:23:37;92548.97;;;-1.29;100.00
64687;BME280;51113;53.646;-113.674;2023-12-07T12:26:08;92548.22;;;-1.29;100.00
64687;BME280;51113;53.646;-113.674;2023-12-07T12:28:39;92517.13;;;-1.50;100.00
64687;BME280;51113;53.646;-113.674;2023-12-07T12:31:11;92554.63;;;-1.27;100.00
64687;BME280;51113;53.646;-113.674;2023-12-07T12:33:40;92562.28;;;-1.27;100.00
64687;BME280;51113;53.646;-113.674;2023-12-07T12:36:09;92550.97;;;-1.31;100.00
64687;BME280;51113;53.646;-113.674;2023-12-07T12:38:47;92553.88;;;-1.27;100.00
64687;BME280;51113;53.646;-113.674;2023-12-07T12:41:18;92551.31;;;-1.27;100.00